Stringtown, Missouri
Current Conditions -  °F | °C
As of 4:53 AM on Thursday 27 Nov 2014 (Local Time) from KJLN Reporting Station
Clear Clear  
Wind Chill: 25°   Ceiling: Unl
Heat Index: 25°   Visibility: 9mi
Dew Point: 20°   Wind: 0mph
Humidity: 81%   Direction: NA
Pressure: 30.48"   Gusts: NA
Location:  37.2082°N, 94.5634°W
Report Text: KJLN 271053Z AUTO 00000KT 9SM CLR M04/M07 A3048 RMK AO2 SLP327 T10391067
Loading
Personal Weather Stations






























Interactive Weather Map New forecast layout! Learn more

10-Day Weather Forecast

Advertisements
Track Severe Weather on mobile